createdAt,value
2018-06-09T00:00:10.538Z,95.30
2018-06-09T00:02:38.669Z,95.30
2018-06-09T00:05:06.723Z,95.60
2018-06-09T00:07:34.774Z,95.60
2018-06-09T00:10:02.855Z,95.60
2018-06-09T00:12:30.927Z,95.50
2018-06-09T00:14:58.986Z,95.50
2018-06-09T00:17:27.046Z,95.50
2018-06-09T00:19:55.114Z,95.50
2018-06-09T00:22:23.184Z,95.50
2018-06-09T00:24:51.247Z,95.60
2018-06-09T00:27:19.314Z,95.60
2018-06-09T00:29:47.394Z,95.60
2018-06-09T00:32:15.510Z,95.50
2018-06-09T00:34:43.555Z,96.10
2018-06-09T00:39:39.530Z,96.00
2018-06-09T00:42:07.580Z,96.00
2018-06-09T00:44:35.650Z,96.10
2018-06-09T00:47:03.711Z,96.10
2018-06-09T00:49:31.789Z,96.20
2018-06-09T00:51:59.858Z,96.40
2018-06-09T00:54:27.942Z,96.40
2018-06-09T00:56:55.999Z,96.50
2018-06-09T00:59:24.056Z,96.50
2018-06-09T01:01:52.126Z,96.60
2018-06-09T01:04:20.187Z,96.70
2018-06-09T01:06:48.239Z,96.80
2018-06-09T01:09:16.307Z,96.80
2018-06-09T01:11:44.377Z,96.90
2018-06-09T01:14:12.447Z,97.00
2018-06-09T01:16:40.494Z,97.00
2018-06-09T01:19:08.565Z,97.10
2018-06-09T01:21:36.618Z,97.20
2018-06-09T01:24:04.813Z,97.20
2018-06-09T01:26:32.987Z,97.30
2018-06-09T01:29:01.034Z,97.30
2018-06-09T01:31:29.130Z,97.30
2018-06-09T01:33:57.184Z,97.40
2018-06-09T01:36:25.250Z,97.50
2018-06-09T01:38:53.322Z,97.50
2018-06-09T01:41:21.383Z,97.80
2018-06-09T01:43:49.473Z,97.80
2018-06-09T01:46:17.534Z,97.80
2018-06-09T01:48:45.631Z,97.80
2018-06-09T01:51:13.803Z,97.80
2018-06-09T01:53:41.890Z,97.80
2018-06-09T01:56:09.950Z,97.90
2018-06-09T01:58:38.020Z,97.90
2018-06-09T02:01:06.093Z,97.90
2018-06-09T02:03:34.182Z,97.90
2018-06-09T02:06:02.250Z,98.00
2018-06-09T02:08:30.322Z,98.00
2018-06-09T02:10:58.391Z,98.00
2018-06-09T02:13:26.462Z,98.10
2018-06-09T02:15:54.538Z,98.10
2018-06-09T02:18:22.592Z,98.20
2018-06-09T02:20:50.767Z,98.30
2018-06-09T02:23:18.818Z,98.70
2018-06-09T02:25:46.891Z,98.50
2018-06-09T02:28:14.978Z,98.60
2018-06-09T02:30:43.030Z,99.00
2018-06-09T02:33:11.130Z,99.10
2018-06-09T02:35:39.171Z,99.10
2018-06-09T02:38:07.236Z,99.20
2018-06-09T02:40:35.349Z,99.20
2018-06-09T02:43:03.498Z,99.20
2018-06-09T02:45:32.391Z,99.30
2018-06-09T02:48:00.590Z,99.30
2018-06-09T02:50:28.663Z,99.30
2018-06-09T02:52:56.830Z,99.40
2018-06-09T02:55:24.882Z,99.40
2018-06-09T02:57:52.992Z,99.40
2018-06-09T03:00:21.110Z,99.50
2018-06-09T03:02:49.294Z,99.40
2018-06-09T03:05:17.387Z,99.40
2018-06-09T03:07:45.451Z,99.40
2018-06-09T03:10:13.518Z,99.40
2018-06-09T03:12:41.574Z,99.40
2018-06-09T03:15:09.655Z,99.30
2018-06-09T03:17:37.726Z,99.40
2018-06-09T03:20:05.908Z,99.40
2018-06-09T03:22:33.944Z,99.40
2018-06-09T03:25:02.141Z,99.40
2018-06-09T03:27:30.209Z,99.30
2018-06-09T03:29:58.291Z,99.20
2018-06-09T03:32:26.434Z,99.20
2018-06-09T03:37:22.403Z,99.10
2018-06-09T03:39:50.510Z,99.10
2018-06-09T03:42:18.579Z,99.00
2018-06-09T03:44:46.662Z,99.20
2018-06-09T03:47:14.786Z,98.90
2018-06-09T03:49:42.838Z,98.90
2018-06-09T03:52:10.899Z,98.80
2018-06-09T03:54:38.971Z,98.70
2018-06-09T03:59:34.992Z,98.60
2018-06-09T04:02:03.094Z,98.70
2018-06-09T04:04:31.188Z,98.50
2018-06-09T04:06:59.258Z,98.40
2018-06-09T04:09:27.447Z,98.50
2018-06-09T04:11:55.518Z,98.40
2018-06-09T04:14:23.590Z,98.20
2018-06-09T04:16:51.698Z,98.20
2018-06-09T04:19:19.793Z,98.20
2018-06-09T04:24:15.790Z,98.00
2018-06-09T04:26:43.853Z,97.90
2018-06-09T04:29:11.934Z,97.80
2018-06-09T04:31:40.023Z,97.70
2018-06-09T04:34:08.114Z,97.70
2018-06-09T04:36:36.188Z,97.60
2018-06-09T04:39:06.839Z,97.50
2018-06-09T04:41:35.096Z,97.50
2018-06-09T04:46:31.119Z,97.30
2018-06-09T04:48:59.182Z,97.20
2018-06-09T04:51:27.274Z,97.50
2018-06-09T04:53:55.383Z,97.10
2018-06-09T04:56:23.441Z,97.00
2018-06-09T04:58:51.532Z,97.20
2018-06-09T05:01:19.608Z,96.70
2018-06-09T05:03:47.683Z,96.40
2018-06-09T05:06:15.754Z,96.50
2018-06-09T05:08:43.921Z,96.40
2018-06-09T05:11:11.995Z,96.30
2018-06-09T05:13:40.126Z,96.20
2018-06-09T05:18:36.166Z,96.00
2018-06-09T05:21:04.281Z,95.80
2018-06-09T05:23:32.354Z,95.60
2018-06-09T05:26:00.474Z,95.60
2018-06-09T05:28:28.529Z,95.50
2018-06-09T05:30:56.626Z,95.40
2018-06-09T05:33:24.702Z,95.30
2018-06-09T05:35:52.798Z,95.10
2018-06-09T05:38:20.883Z,95.00
2018-06-09T05:40:48.958Z,94.90
2018-06-09T05:43:17.011Z,94.80
2018-06-09T05:45:45.303Z,94.80
2018-06-09T05:48:13.387Z,94.70
2018-06-09T05:50:41.478Z,94.60
2018-06-09T05:53:09.519Z,94.50
2018-06-09T05:55:37.643Z,94.50
2018-06-09T05:58:05.675Z,94.80
2018-06-09T06:00:33.767Z,94.30
2018-06-09T06:03:01.918Z,94.40
2018-06-09T06:05:29.930Z,94.30
2018-06-09T06:07:58.003Z,94.30
2018-06-09T06:10:26.094Z,94.10
2018-06-09T06:12:54.234Z,93.90
2018-06-09T06:15:22.302Z,93.80
2018-06-09T06:17:50.366Z,93.70
2018-06-09T06:20:18.450Z,93.60
2018-06-09T06:22:46.522Z,93.40
2018-06-09T06:25:14.610Z,93.30
2018-06-09T06:27:42.680Z,93.20
2018-06-09T06:30:10.786Z,93.10
2018-06-09T06:32:38.890Z,92.90
2018-06-09T06:35:06.970Z,92.70
2018-06-09T06:40:02.978Z,92.40
2018-06-09T06:42:31.046Z,92.30
2018-06-09T06:44:59.228Z,92.10
2018-06-09T06:47:27.248Z,91.80
2018-06-09T06:49:55.311Z,91.60
2018-06-09T06:52:23.372Z,91.50
2018-06-09T06:54:51.445Z,90.70
2018-06-09T06:57:19.527Z,90.80
2018-06-09T06:59:47.591Z,90.70
2018-06-09T07:02:15.702Z,90.60
2018-06-09T07:04:43.756Z,90.40
2018-06-09T07:07:11.835Z,90.10
2018-06-09T07:09:39.930Z,89.90
2018-06-09T07:12:08.075Z,89.20
2018-06-09T07:14:36.145Z,88.60
2018-06-09T07:17:04.190Z,88.30
2018-06-09T07:19:32.290Z,88.20
2018-06-09T07:22:00.464Z,87.70
2018-06-09T07:24:28.512Z,86.90
2018-06-09T07:26:56.579Z,86.50
2018-06-09T07:29:24.678Z,85.50
2018-06-09T07:31:52.762Z,84.90
2018-06-09T07:34:20.879Z,84.20
2018-06-09T07:36:48.942Z,83.90
2018-06-09T07:39:17.047Z,83.60
2018-06-09T07:41:45.123Z,83.80
2018-06-09T07:44:13.215Z,82.80
2018-06-09T07:46:41.251Z,83.40
2018-06-09T07:49:09.349Z,83.90
2018-06-09T07:51:37.411Z,83.80
2018-06-09T07:54:05.651Z,84.10
2018-06-09T07:56:33.663Z,84.30
2018-06-09T07:59:01.733Z,84.40
2018-06-09T08:01:29.797Z,84.30
2018-06-09T08:03:57.850Z,84.30
2018-06-09T08:06:25.943Z,84.20
2018-06-09T08:08:54.011Z,83.80
2018-06-09T08:11:22.074Z,83.20
2018-06-09T08:13:50.179Z,83.10
2018-06-09T08:16:18.225Z,83.00
2018-06-09T08:18:46.283Z,82.40
2018-06-09T08:21:14.370Z,82.10
2018-06-09T08:23:42.442Z,82.30
2018-06-09T08:26:10.636Z,81.00
2018-06-09T08:28:38.722Z,80.80
2018-06-09T08:31:06.885Z,80.90
2018-06-09T08:33:34.982Z,80.30
2018-06-09T08:36:03.072Z,80.10
2018-06-09T08:38:31.114Z,79.70
2018-06-09T08:40:59.186Z,79.80
2018-06-09T08:43:27.243Z,80.10
2018-06-09T08:45:55.327Z,80.10
2018-06-09T08:48:23.489Z,80.70
2018-06-09T08:50:51.581Z,80.80
2018-06-09T08:53:19.700Z,81.00
2018-06-09T08:55:47.835Z,81.00
2018-06-09T08:58:15.907Z,80.60
2018-06-09T09:00:44.019Z,79.20
2018-06-09T09:05:40.006Z,78.20
2018-06-09T09:08:08.337Z,78.00
2018-06-09T09:10:36.442Z,77.70
2018-06-09T09:13:04.567Z,77.70
2018-06-09T09:18:00.615Z,76.60
2018-06-09T09:20:28.670Z,77.20
2018-06-09T09:22:56.768Z,78.10
2018-06-09T09:30:20.785Z,74.20
2018-06-09T09:32:48.984Z,74.60
2018-06-09T09:35:17.074Z,75.10
2018-06-09T09:37:45.210Z,75.40
2018-06-09T09:40:13.274Z,75.80
2018-06-09T09:45:09.336Z,74.00
2018-06-09T09:47:37.394Z,74.60
2018-06-09T09:50:05.459Z,73.70
2018-06-09T09:52:33.538Z,72.80
2018-06-09T09:55:01.638Z,72.20
2018-06-09T09:57:29.690Z,71.30
2018-06-09T09:59:57.860Z,71.20
2018-06-09T10:02:25.950Z,70.30
2018-06-09T10:04:54.035Z,70.40
2018-06-09T10:07:22.102Z,69.80
2018-06-09T10:09:50.175Z,69.30
2018-06-09T10:12:18.270Z,67.70
2018-06-09T10:14:46.339Z,67.30
2018-06-09T10:17:14.427Z,66.70
2018-06-09T10:19:42.507Z,67.10
2018-06-09T10:22:10.620Z,67.90
2018-06-09T10:24:38.687Z,66.30
2018-06-09T10:27:06.988Z,65.70
2018-06-09T10:29:35.040Z,66.10
2018-06-09T10:32:03.217Z,66.50
2018-06-09T10:34:31.510Z,65.20
2018-06-09T10:36:59.633Z,64.60
2018-06-09T10:39:27.698Z,63.80
2018-06-09T10:44:23.623Z,64.80
2018-06-09T10:46:51.690Z,63.50
2018-06-09T10:49:19.749Z,63.20
2018-06-09T10:51:47.819Z,63.20
2018-06-09T10:54:15.878Z,63.20
2018-06-09T10:56:44.036Z,63.10
2018-06-09T10:59:12.107Z,62.70
2018-06-09T11:01:40.177Z,62.40
2018-06-09T11:04:08.255Z,61.90
2018-06-09T11:06:36.312Z,62.50
2018-06-09T11:09:06.618Z,62.20
2018-06-09T11:11:34.662Z,62.10
2018-06-09T11:14:02.737Z,62.60
2018-06-09T11:16:30.794Z,62.70
2018-06-09T11:18:58.859Z,62.00
2018-06-09T11:21:27.005Z,62.20
2018-06-09T11:23:55.072Z,62.40
2018-06-09T11:26:23.258Z,62.20
2018-06-09T11:28:51.330Z,62.30
2018-06-09T11:31:19.383Z,62.70
2018-06-09T11:33:47.452Z,62.50
2018-06-09T11:36:15.509Z,62.50
2018-06-09T11:41:11.556Z,62.60
2018-06-09T11:43:39.655Z,62.50
2018-06-09T11:46:07.721Z,62.40
2018-06-09T11:48:35.779Z,62.60
2018-06-09T11:51:03.838Z,62.20
2018-06-09T11:53:31.922Z,61.70
2018-06-09T11:55:59.980Z,61.50
2018-06-09T11:58:28.042Z,62.00
2018-06-09T12:00:56.171Z,62.50
2018-06-09T12:03:24.246Z,62.20
2018-06-09T12:05:52.398Z,62.10
2018-06-09T12:08:20.469Z,62.50
2018-06-09T12:10:48.543Z,62.60
2018-06-09T12:13:16.640Z,62.30
2018-06-09T12:15:44.708Z,62.40
2018-06-09T12:18:12.784Z,62.70
2018-06-09T12:20:40.852Z,62.70
2018-06-09T12:23:09.004Z,61.90
2018-06-09T12:25:37.068Z,61.80
2018-06-09T12:28:05.146Z,61.50
2018-06-09T12:30:33.324Z,61.90
2018-06-09T12:33:01.434Z,63.10
2018-06-09T12:35:29.459Z,62.10
2018-06-09T12:37:57.530Z,62.40
2018-06-09T12:40:25.711Z,62.00
2018-06-09T12:42:53.779Z,61.80
2018-06-09T12:45:21.821Z,61.10
2018-06-09T12:50:17.751Z,61.20
2018-06-09T12:52:45.826Z,61.40
2018-06-09T12:55:13.919Z,61.50
2018-06-09T12:57:42.003Z,61.60
2018-06-09T13:00:10.090Z,60.20
2018-06-09T13:02:38.179Z,60.10
2018-06-09T13:05:06.254Z,59.70
2018-06-09T13:07:34.310Z,60.10
2018-06-09T13:10:02.449Z,59.60
2018-06-09T13:12:30.507Z,59.70
2018-06-09T13:14:58.575Z,59.60
2018-06-09T13:17:26.691Z,59.70
2018-06-09T13:19:54.790Z,60.70
2018-06-09T13:22:22.875Z,59.70
2018-06-09T13:24:51.002Z,59.00
2018-06-09T13:27:19.032Z,59.10
2018-06-09T13:29:47.106Z,59.40
2018-06-09T13:32:15.179Z,59.10
2018-06-09T13:37:11.151Z,57.90
2018-06-09T13:39:39.212Z,57.30
2018-06-09T13:42:07.274Z,57.10
2018-06-09T13:44:35.370Z,56.60
2018-06-09T13:47:03.426Z,57.10
2018-06-09T13:49:31.543Z,56.90
2018-06-09T13:51:59.573Z,57.50
2018-06-09T13:54:27.705Z,57.60
2018-06-09T13:56:55.718Z,57.90
2018-06-09T13:59:23.791Z,57.90
2018-06-09T14:01:51.893Z,57.90
2018-06-09T14:04:19.967Z,57.90
2018-06-09T14:06:48.040Z,57.90
2018-06-09T14:09:16.194Z,58.10
2018-06-09T14:11:44.271Z,58.50
2018-06-09T14:14:12.409Z,58.70
2018-06-09T14:16:40.485Z,59.10
2018-06-09T14:21:36.471Z,57.80
2018-06-09T14:24:04.559Z,57.90
2018-06-09T14:26:32.692Z,57.40
2018-06-09T14:29:00.783Z,57.70
2018-06-09T14:31:28.851Z,58.40
2018-06-09T14:33:56.940Z,58.50
2018-06-09T14:36:25.116Z,58.40
2018-06-09T14:38:53.239Z,58.40
2018-06-09T14:41:21.260Z,58.10
2018-06-09T14:43:49.337Z,57.60
2018-06-09T14:46:17.405Z,57.10
2018-06-09T14:48:45.479Z,56.80
2018-06-09T14:51:13.617Z,56.00
2018-06-09T14:53:41.696Z,55.60
2018-06-09T14:56:09.743Z,55.20
2018-06-09T14:58:37.806Z,55.30
2018-06-09T15:01:05.905Z,54.40
2018-06-09T15:05:03.214Z,53.90
2018-06-09T15:07:31.270Z,53.90
2018-06-09T15:09:59.377Z,53.50
2018-06-09T15:12:27.470Z,53.60
2018-06-09T15:14:55.554Z,53.70
2018-06-09T15:17:23.627Z,53.80
2018-06-09T15:19:51.729Z,54.00
2018-06-09T15:22:19.855Z,52.80
2018-06-09T15:24:48.026Z,52.70
2018-06-09T15:27:16.088Z,52.70
2018-06-09T15:29:44.227Z,52.00
2018-06-09T15:32:12.303Z,51.50
2018-06-09T15:34:40.388Z,50.70
2018-06-09T15:37:08.468Z,51.20
2018-06-09T15:39:36.603Z,51.60
2018-06-09T15:42:04.833Z,52.10
2018-06-09T15:44:32.939Z,51.50
2018-06-09T15:47:01.086Z,51.20
2018-06-09T15:49:29.194Z,51.10
2018-06-09T15:51:57.273Z,50.70
2018-06-09T15:54:25.410Z,50.70
2018-06-09T15:56:53.460Z,50.80
2018-06-09T15:59:22.591Z,50.90
2018-06-09T16:01:57.077Z,50.70
2018-06-09T16:04:25.393Z,50.50
2018-06-09T16:06:53.567Z,49.60
2018-06-09T16:09:21.638Z,49.30
2018-06-09T16:11:49.766Z,49.10
2018-06-09T16:14:17.826Z,48.50
2018-06-09T16:16:45.896Z,48.60
2018-06-09T16:19:14.016Z,49.00
2018-06-09T16:21:42.106Z,48.90
2018-06-09T16:24:10.199Z,48.80
2018-06-09T16:26:38.271Z,49.10
2018-06-09T16:29:06.423Z,49.70
2018-06-09T16:31:34.493Z,48.70
2018-06-09T16:34:02.624Z,48.30
2018-06-09T16:38:58.663Z,51.10
2018-06-09T16:41:26.767Z,51.70
2018-06-09T16:43:54.934Z,52.60
2018-06-09T16:46:23.163Z,52.70
2018-06-09T16:48:51.232Z,52.50
2018-06-09T16:51:19.331Z,52.40
2018-06-09T16:53:47.396Z,52.00
2018-06-09T16:56:15.487Z,51.50
2018-06-09T16:58:43.602Z,51.30
2018-06-09T17:01:11.719Z,51.30
2018-06-09T17:03:39.802Z,51.70
2018-06-09T17:06:07.881Z,52.90
2018-06-09T17:08:35.969Z,54.20
2018-06-09T17:11:04.094Z,55.40
2018-06-09T17:13:32.156Z,56.10
2018-06-09T17:16:00.222Z,56.90
2018-06-09T17:18:28.387Z,58.50
2018-06-09T17:20:56.586Z,59.00
2018-06-09T17:23:24.660Z,59.30
2018-06-09T17:25:52.733Z,59.60
2018-06-09T17:28:20.803Z,60.30
2018-06-09T17:30:48.858Z,60.40
2018-06-09T17:33:16.943Z,60.70
2018-06-09T17:35:45.023Z,61.30
2018-06-09T17:38:13.107Z,62.00
2018-06-09T17:40:41.166Z,62.30
2018-06-09T17:43:09.361Z,62.30
2018-06-09T17:45:37.459Z,62.30
2018-06-09T17:48:05.546Z,62.70
2018-06-09T17:50:33.594Z,63.50
2018-06-09T17:53:01.651Z,64.40
2018-06-09T17:55:29.714Z,64.40
2018-06-09T17:57:57.866Z,64.60
2018-06-09T18:00:26.004Z,65.00
2018-06-09T18:02:54.088Z,65.50
2018-06-09T18:05:22.180Z,65.90
2018-06-09T18:07:50.251Z,66.10
2018-06-09T18:10:18.416Z,66.80
2018-06-09T18:12:46.502Z,67.50
2018-06-09T18:15:14.666Z,67.90
2018-06-09T18:17:42.758Z,68.10
2018-06-09T18:20:10.922Z,68.30
2018-06-09T18:22:38.997Z,68.60
2018-06-09T18:25:07.064Z,68.90
2018-06-09T18:27:35.218Z,69.30
2018-06-09T18:30:03.327Z,69.60
2018-06-09T18:32:31.581Z,70.00
2018-06-09T18:34:59.641Z,70.20
2018-06-09T18:37:27.758Z,70.70
2018-06-09T18:39:55.845Z,71.20
2018-06-09T18:42:23.926Z,71.40
2018-06-09T18:44:52.031Z,71.70
2018-06-09T18:47:20.452Z,71.90
2018-06-09T18:49:48.658Z,71.90
2018-06-09T18:52:17.225Z,72.00
2018-06-09T18:54:45.371Z,72.10
2018-06-09T18:57:13.557Z,72.60
2018-06-09T18:59:41.660Z,72.80
2018-06-09T19:02:09.731Z,72.90
2018-06-09T19:04:37.863Z,73.30
2018-06-09T19:07:05.970Z,73.60
2018-06-09T19:09:34.337Z,74.30
2018-06-09T19:12:02.418Z,74.50
2018-06-09T19:14:30.582Z,74.50
2018-06-09T19:16:58.738Z,75.00
2018-06-09T19:19:26.879Z,75.00
2018-06-09T19:21:55.051Z,75.20
2018-06-09T19:24:23.107Z,76.10
2018-06-09T19:26:51.490Z,75.60
2018-06-09T19:29:19.599Z,75.90
2018-06-09T19:31:47.695Z,76.40
2018-06-09T19:34:15.810Z,76.60
2018-06-09T19:36:44.641Z,77.10
2018-06-09T19:39:12.742Z,77.40
2018-06-09T19:41:40.871Z,77.70
2018-06-09T19:44:09.670Z,78.60
2018-06-09T19:46:37.730Z,78.60
2018-06-09T19:49:05.803Z,78.70
2018-06-09T19:51:33.883Z,78.70
2018-06-09T19:54:01.987Z,78.80
2018-06-09T19:56:30.061Z,79.00
2018-06-09T19:58:58.216Z,79.10
2018-06-09T20:01:26.563Z,79.10
2018-06-09T20:03:54.746Z,79.20
2018-06-09T20:06:22.826Z,79.20
2018-06-09T20:08:50.943Z,79.30
2018-06-09T20:11:18.994Z,79.40
2018-06-09T20:13:47.080Z,79.50
2018-06-09T20:16:15.194Z,79.60
2018-06-09T20:18:43.321Z,79.70
2018-06-09T20:21:11.511Z,79.90
2018-06-09T20:23:39.590Z,80.30
2018-06-09T20:26:07.958Z,80.30
2018-06-09T20:28:36.024Z,80.40
2018-06-09T20:31:06.735Z,80.40
2018-06-09T20:33:34.820Z,80.50
2018-06-09T20:36:02.895Z,80.50
2018-06-09T20:38:31.090Z,80.80
2018-06-09T20:40:59.174Z,81.00
2018-06-09T20:43:27.608Z,81.30
2018-06-09T20:45:55.819Z,81.40
2018-06-09T20:48:23.871Z,81.50
2018-06-09T20:50:52.025Z,81.70
2018-06-09T20:53:20.084Z,82.00
2018-06-09T20:55:48.178Z,82.10
2018-06-09T20:58:16.239Z,82.30
2018-06-09T21:00:44.312Z,82.50
2018-06-09T21:03:12.366Z,82.80
2018-06-09T21:05:40.484Z,83.60
2018-06-09T21:08:08.534Z,83.60
2018-06-09T21:10:36.608Z,83.80
2018-06-09T21:13:04.784Z,84.00
2018-06-09T21:15:32.834Z,84.20
2018-06-09T21:18:00.946Z,84.30
2018-06-09T21:20:29.079Z,84.40
2018-06-09T21:22:57.225Z,84.60
2018-06-09T21:25:25.292Z,84.70
2018-06-09T21:27:58.874Z,85.20
2018-06-09T21:30:48.354Z,85.30
2018-06-09T21:33:29.873Z,85.40
2018-06-09T21:36:03.755Z,86.10
2018-06-09T21:38:33.241Z,86.30
2018-06-09T21:41:01.956Z,86.40
2018-06-09T21:43:34.527Z,87.50
2018-06-09T21:46:05.558Z,87.40
2018-06-09T21:48:33.611Z,87.30
2018-06-09T21:51:02.579Z,87.40
2018-06-09T21:53:30.642Z,87.60
2018-06-09T21:55:58.718Z,87.90
2018-06-09T21:58:27.272Z,87.90
2018-06-09T22:00:55.351Z,88.30
2018-06-09T22:05:51.371Z,88.80
2018-06-09T22:08:19.460Z,89.00
2018-06-09T22:10:47.570Z,89.20
2018-06-09T22:13:15.616Z,89.60
2018-06-09T22:15:43.683Z,89.70
2018-06-09T22:18:11.774Z,89.90
2018-06-09T22:20:39.835Z,90.00
2018-06-09T22:23:07.900Z,90.30
2018-06-09T22:25:41.552Z,90.30
2018-06-09T22:28:09.682Z,90.70
2018-06-09T22:30:37.879Z,90.60
2018-06-09T22:33:06.022Z,90.50
2018-06-09T22:38:02.019Z,90.60
2018-06-09T22:40:30.088Z,90.60
2018-06-09T22:42:58.172Z,90.60
2018-06-09T22:45:26.258Z,90.60
2018-06-09T22:47:54.328Z,90.70
2018-06-09T22:50:22.394Z,90.70
2018-06-09T22:52:50.528Z,90.70
2018-06-09T22:55:18.583Z,90.80
2018-06-09T22:57:46.630Z,90.90
2018-06-09T23:00:24.877Z,90.90
2018-06-09T23:02:52.933Z,91.00
2018-06-09T23:05:20.978Z,91.10
2018-06-09T23:07:49.059Z,91.20
2018-06-09T23:10:17.113Z,91.70
2018-06-09T23:12:45.203Z,91.60
2018-06-09T23:15:13.282Z,91.50
2018-06-09T23:17:41.371Z,91.50
2018-06-09T23:20:09.435Z,91.50
2018-06-09T23:22:37.519Z,91.50
2018-06-09T23:25:05.620Z,91.60
2018-06-09T23:27:33.835Z,91.50
2018-06-09T23:32:29.826Z,91.40
2018-06-09T23:34:57.886Z,91.50
2018-06-09T23:37:25.976Z,91.50
2018-06-09T23:39:54.026Z,91.40
2018-06-09T23:42:22.083Z,91.50
2018-06-09T23:44:50.174Z,91.50
2018-06-09T23:47:18.242Z,91.80
2018-06-09T23:49:46.315Z,91.70
2018-06-09T23:52:14.376Z,91.70
2018-06-09T23:54:42.437Z,91.80
2018-06-09T23:57:10.494Z,91.80
2018-06-09T23:59:38.562Z,91.80
